sensor_id;sensor_type;location;lat;lon;timestamp;pressure;altitude;pressure_sealevel;temperature;humidity
63552;BME280;49698;48.072;7.800;2022-11-18T00:01:38;97600.72;;;10.26;91.75
63552;BME280;49698;48.072;7.800;2022-11-18T00:04:06;97596.47;;;10.25;91.66
63552;BME280;49698;48.072;7.800;2022-11-18T00:06:34;97598.03;;;10.26;91.92
63552;BME280;49698;48.072;7.800;2022-11-18T00:09:02;97612.56;;;10.25;92.34
63552;BME280;49698;48.072;7.800;2022-11-18T00:11:31;97614.00;;;10.22;92.13
63552;BME280;49698;48.072;7.800;2022-11-18T00:14:21;97620.47;;;10.21;92.50
63552;BME280;49698;48.072;7.800;2022-11-18T00:16:51;97621.25;;;10.22;92.36
63552;BME280;49698;48.072;7.800;2022-11-18T00:19:21;97618.56;;;10.22;92.86
63552;BME280;49698;48.072;7.800;2022-11-18T00:21:50;97627.59;;;10.17;93.14
63552;BME280;49698;48.072;7.800;2022-11-18T00:24:19;97626.34;;;10.15;93.28
63552;BME280;49698;48.072;7.800;2022-11-18T00:26:47;97633.47;;;10.11;93.74
63552;BME280;49698;48.072;7.800;2022-11-18T00:29:17;97637.59;;;10.08;93.96
63552;BME280;49698;48.072;7.800;2022-11-18T00:31:46;97637.88;;;10.07;94.19
63552;BME280;49698;48.072;7.800;2022-11-18T00:34:15;97639.78;;;10.06;94.41
63552;BME280;49698;48.072;7.800;2022-11-18T00:36:44;97635.53;;;10.05;94.39
63552;BME280;49698;48.072;7.800;2022-11-18T00:39:14;97638.22;;;10.05;94.27
63552;BME280;49698;48.072;7.800;2022-11-18T00:41:43;97641.69;;;10.05;94.35
63552;BME280;49698;48.072;7.800;2022-11-18T00:44:41;97640.13;;;10.04;94.39
63552;BME280;49698;48.072;7.800;2022-11-18T00:47:09;97650.88;;;10.04;94.53
63552;BME280;49698;48.072;7.800;2022-11-18T00:49:38;97645.50;;;10.04;94.69
63552;BME280;49698;48.072;7.800;2022-11-18T00:52:06;97650.09;;;10.04;94.57
63552;BME280;49698;48.072;7.800;2022-11-18T00:54:34;97648.50;;;10.03;94.72
63552;BME280;49698;48.072;7.800;2022-11-18T00:57:02;97654.19;;;10.01;94.74
63552;BME280;49698;48.072;7.800;2022-11-18T00:59:31;97663.69;;;9.99;94.44
63552;BME280;49698;48.072;7.800;2022-11-18T01:02:00;97667.47;;;9.98;94.76
63552;BME280;49698;48.072;7.800;2022-11-18T01:04:28;97675.84;;;9.96;95.00
63552;BME280;49698;48.072;7.800;2022-11-18T01:06:56;97678.03;;;9.94;94.49
63552;BME280;49698;48.072;7.800;2022-11-18T01:09:25;97683.75;;;9.93;94.61
63552;BME280;49698;48.072;7.800;2022-11-18T01:11:53;97694.00;;;9.91;94.74
63552;BME280;49698;48.072;7.800;2022-11-18T01:14:38;97696.22;;;9.89;95.33
63552;BME280;49698;48.072;7.800;2022-11-18T01:17:08;97695.44;;;9.88;95.26
63552;BME280;49698;48.072;7.800;2022-11-18T01:19:36;97693.84;;;9.87;95.24
63552;BME280;49698;48.072;7.800;2022-11-18T01:22:04;97689.28;;;9.88;95.28
63552;BME280;49698;48.072;7.800;2022-11-18T01:24:32;97703.00;;;9.86;95.19
63552;BME280;49698;48.072;7.800;2022-11-18T01:27:01;97705.25;;;9.84;95.15
63552;BME280;49698;48.072;7.800;2022-11-18T01:29:29;97715.50;;;9.82;95.32
63552;BME280;49698;48.072;7.800;2022-11-18T01:31:57;97718.81;;;9.79;95.09
63552;BME280;49698;48.072;7.800;2022-11-18T01:34:47;97726.41;;;9.77;95.20
63552;BME280;49698;48.072;7.800;2022-11-18T01:37:15;97733.97;;;9.75;95.51
63552;BME280;49698;48.072;7.800;2022-11-18T01:39:43;97738.38;;;9.71;95.50
63552;BME280;49698;48.072;7.800;2022-11-18T01:42:14;97729.09;;;9.68;95.65
63552;BME280;49698;48.072;7.800;2022-11-18T01:44:58;97732.72;;;9.64;95.74
63552;BME280;49698;48.072;7.800;2022-11-18T01:47:31;97731.75;;;9.60;95.46
63552;BME280;49698;48.072;7.800;2022-11-18T01:50:02;97740.94;;;9.59;95.82
63552;BME280;49698;48.072;7.800;2022-11-18T01:52:31;97745.50;;;9.58;95.38
63552;BME280;49698;48.072;7.800;2022-11-18T01:55:05;97757.66;;;9.55;95.55
63552;BME280;49698;48.072;7.800;2022-11-18T01:57:34;97763.00;;;9.55;95.57
63552;BME280;49698;48.072;7.800;2022-11-18T02:00:05;97759.09;;;9.53;95.72
63552;BME280;49698;48.072;7.800;2022-11-18T02:02:35;97768.53;;;9.50;95.72
63552;BME280;49698;48.072;7.800;2022-11-18T02:05:07;97766.66;;;9.42;95.92
63552;BME280;49698;48.072;7.800;2022-11-18T02:07:39;97778.31;;;9.38;96.05
63552;BME280;49698;48.072;7.800;2022-11-18T02:10:17;97782.41;;;9.35;95.76
63552;BME280;49698;48.072;7.800;2022-11-18T02:12:46;97780.34;;;9.32;96.19
63552;BME280;49698;48.072;7.800;2022-11-18T02:15:14;97797.06;;;9.29;95.98
63552;BME280;49698;48.072;7.800;2022-11-18T02:17:47;97793.91;;;9.27;96.22
63552;BME280;49698;48.072;7.800;2022-11-18T02:20:30;97797.72;;;9.26;96.24
63552;BME280;49698;48.072;7.800;2022-11-18T02:23:40;97804.16;;;9.25;96.11
63552;BME280;49698;48.072;7.800;2022-11-18T02:26:32;97806.38;;;9.23;96.27
63552;BME280;49698;48.072;7.800;2022-11-18T02:29:09;97798.94;;;9.20;96.05
63552;BME280;49698;48.072;7.800;2022-11-18T02:31:45;97805.88;;;9.21;96.21
63552;BME280;49698;48.072;7.800;2022-11-18T02:34:23;97807.00;;;9.20;96.66
63552;BME280;49698;48.072;7.800;2022-11-18T02:36:58;97814.09;;;9.16;96.79
63552;BME280;49698;48.072;7.800;2022-11-18T02:39:34;97812.50;;;9.15;96.41
63552;BME280;49698;48.072;7.800;2022-11-18T02:42:06;97809.66;;;9.11;96.71
63552;BME280;49698;48.072;7.800;2022-11-18T02:44:42;97792.78;;;9.11;96.68
63552;BME280;49698;48.072;7.800;2022-11-18T02:47:14;97777.00;;;9.09;96.72
63552;BME280;49698;48.072;7.800;2022-11-18T02:49:46;97775.44;;;9.08;96.76
63552;BME280;49698;48.072;7.800;2022-11-18T02:52:15;97807.13;;;9.06;96.83
63552;BME280;49698;48.072;7.800;2022-11-18T02:54:46;97817.84;;;9.06;96.95
63552;BME280;49698;48.072;7.800;2022-11-18T02:57:16;97822.91;;;9.07;97.18
63552;BME280;49698;48.072;7.800;2022-11-18T02:59:47;97828.25;;;9.07;96.82
63552;BME280;49698;48.072;7.800;2022-11-18T03:02:17;97839.16;;;9.11;96.84
63552;BME280;49698;48.072;7.800;2022-11-18T03:04:47;97835.03;;;9.14;96.83
63552;BME280;49698;48.072;7.800;2022-11-18T03:07:18;97842.28;;;9.13;96.42
63552;BME280;49698;48.072;7.800;2022-11-18T03:09:49;97842.00;;;9.15;96.58
63552;BME280;49698;48.072;7.800;2022-11-18T03:12:23;97845.13;;;9.17;96.89
63552;BME280;49698;48.072;7.800;2022-11-18T03:15:04;97840.88;;;9.16;96.49
63552;BME280;49698;48.072;7.800;2022-11-18T03:17:43;97840.41;;;9.14;96.52
63552;BME280;49698;48.072;7.800;2022-11-18T03:20:18;97843.88;;;9.14;96.71
63552;BME280;49698;48.072;7.800;2022-11-18T03:22:52;97851.59;;;9.16;96.62
63552;BME280;49698;48.072;7.800;2022-11-18T03:25:25;97846.25;;;9.16;96.52
63552;BME280;49698;48.072;7.800;2022-11-18T03:28:01;97841.66;;;9.16;96.74
63552;BME280;49698;48.072;7.800;2022-11-18T03:30:31;97843.25;;;9.17;96.74
63552;BME280;49698;48.072;7.800;2022-11-18T03:33:04;97854.78;;;9.18;96.33
63552;BME280;49698;48.072;7.800;2022-11-18T03:35:37;97855.84;;;9.17;96.70
63552;BME280;49698;48.072;7.800;2022-11-18T03:38:10;97851.59;;;9.16;96.38
63552;BME280;49698;48.072;7.800;2022-11-18T03:40:44;97860.25;;;9.13;96.57
63552;BME280;49698;48.072;7.800;2022-11-18T03:43:15;97858.38;;;9.13;96.72
63552;BME280;49698;48.072;7.800;2022-11-18T03:45:47;97856.34;;;9.10;96.69
63552;BME280;49698;48.072;7.800;2022-11-18T03:48:17;97860.59;;;9.11;96.53
63552;BME280;49698;48.072;7.800;2022-11-18T03:50:49;97864.38;;;9.10;96.46
63552;BME280;49698;48.072;7.800;2022-11-18T03:53:19;97871.91;;;9.08;96.58
63552;BME280;49698;48.072;7.800;2022-11-18T03:55:53;97872.72;;;9.09;96.49
63552;BME280;49698;48.072;7.800;2022-11-18T03:58:28;97875.38;;;9.09;96.58
63552;BME280;49698;48.072;7.800;2022-11-18T04:01:03;97879.66;;;9.10;96.67
63552;BME280;49698;48.072;7.800;2022-11-18T04:03:32;97881.25;;;9.11;96.39
63552;BME280;49698;48.072;7.800;2022-11-18T04:06:03;97877.47;;;9.12;96.24
63552;BME280;49698;48.072;7.800;2022-11-18T04:08:37;97879.66;;;9.10;96.27
63552;BME280;49698;48.072;7.800;2022-11-18T04:11:10;97888.00;;;9.08;96.08
63552;BME280;49698;48.072;7.800;2022-11-18T04:14:01;97896.38;;;9.06;96.05
63552;BME280;49698;48.072;7.800;2022-11-18T04:16:38;97894.75;;;9.05;95.96
63552;BME280;49698;48.072;7.800;2022-11-18T04:19:06;97891.63;;;9.03;95.74
63552;BME280;49698;48.072;7.800;2022-11-18T04:21:34;97895.88;;;9.04;95.58
63552;BME280;49698;48.072;7.800;2022-11-18T04:24:03;97898.09;;;9.02;95.55
63552;BME280;49698;48.072;7.800;2022-11-18T04:26:31;97898.38;;;9.01;94.97
63552;BME280;49698;48.072;7.800;2022-11-18T04:28:59;97908.31;;;9.00;95.08
63552;BME280;49698;48.072;7.800;2022-11-18T04:31:27;97909.88;;;9.01;94.94
63552;BME280;49698;48.072;7.800;2022-11-18T04:33:56;97908.31;;;9.00;94.42
63552;BME280;49698;48.072;7.800;2022-11-18T04:36:24;97908.63;;;8.99;94.81
63552;BME280;49698;48.072;7.800;2022-11-18T04:38:53;97916.66;;;8.99;94.21
63552;BME280;49698;48.072;7.800;2022-11-18T04:41:20;97908.13;;;8.97;94.31
63552;BME280;49698;48.072;7.800;2022-11-18T04:44:09;97905.78;;;8.95;94.51
63552;BME280;49698;48.072;7.800;2022-11-18T04:46:40;97917.28;;;8.96;94.42
63552;BME280;49698;48.072;7.800;2022-11-18T04:49:11;97921.84;;;8.95;94.51
63552;BME280;49698;48.072;7.800;2022-11-18T04:51:40;97918.84;;;8.97;94.32
63552;BME280;49698;48.072;7.800;2022-11-18T04:54:08;97913.81;;;8.95;94.11
63552;BME280;49698;48.072;7.800;2022-11-18T04:56:36;97918.06;;;8.96;94.40
63552;BME280;49698;48.072;7.800;2022-11-18T04:59:08;97921.34;;;8.93;94.45
63552;BME280;49698;48.072;7.800;2022-11-18T05:01:36;97922.16;;;8.94;94.41
63552;BME280;49698;48.072;7.800;2022-11-18T05:04:05;97919.28;;;8.90;94.73
63552;BME280;49698;48.072;7.800;2022-11-18T05:06:35;97939.16;;;8.89;94.76
63552;BME280;49698;48.072;7.800;2022-11-18T05:09:03;97927.47;;;8.85;94.79
63552;BME280;49698;48.072;7.800;2022-11-18T05:11:31;97936.59;;;8.84;95.13
63552;BME280;49698;48.072;7.800;2022-11-18T05:14:16;97944.16;;;8.82;95.10
63552;BME280;49698;48.072;7.800;2022-11-18T05:16:44;97941.78;;;8.80;95.15
63552;BME280;49698;48.072;7.800;2022-11-18T05:19:12;97951.72;;;8.80;95.15
63552;BME280;49698;48.072;7.800;2022-11-18T05:21:42;97955.19;;;8.80;95.06
63552;BME280;49698;48.072;7.800;2022-11-18T05:24:10;97960.03;;;8.78;95.00
63552;BME280;49698;48.072;7.800;2022-11-18T05:26:38;97963.53;;;8.79;94.90
63552;BME280;49698;48.072;7.800;2022-11-18T05:29:06;97970.75;;;8.78;95.14
63552;BME280;49698;48.072;7.800;2022-11-18T05:31:35;97979.09;;;8.77;94.88
63552;BME280;49698;48.072;7.800;2022-11-18T05:34:03;97984.47;;;8.77;94.94
63552;BME280;49698;48.072;7.800;2022-11-18T05:36:32;97985.56;;;8.76;94.75
63552;BME280;49698;48.072;7.800;2022-11-18T05:39:01;97989.03;;;8.76;94.36
63552;BME280;49698;48.072;7.800;2022-11-18T05:41:30;97984.28;;;8.73;94.33
63552;BME280;49698;48.072;7.800;2022-11-18T05:44:16;97995.78;;;8.74;94.45
63552;BME280;49698;48.072;7.800;2022-11-18T05:46:44;97993.44;;;8.72;94.11
63552;BME280;49698;48.072;7.800;2022-11-18T05:49:12;97990.56;;;8.69;93.83
63552;BME280;49698;48.072;7.800;2022-11-18T05:51:40;97999.19;;;8.66;94.02
63552;BME280;49698;48.072;7.800;2022-11-18T05:54:10;98005.78;;;8.60;93.77
63552;BME280;49698;48.072;7.800;2022-11-18T05:56:42;98004.00;;;8.55;93.98
63552;BME280;49698;48.072;7.800;2022-11-18T05:59:11;98010.25;;;8.50;93.85
63552;BME280;49698;48.072;7.800;2022-11-18T06:01:42;98014.66;;;8.46;93.95
63552;BME280;49698;48.072;7.800;2022-11-18T06:04:15;98020.31;;;8.45;94.03
63552;BME280;49698;48.072;7.800;2022-11-18T06:06:46;98027.56;;;8.44;93.49
63552;BME280;49698;48.072;7.800;2022-11-18T06:09:19;98030.53;;;8.43;93.71
63552;BME280;49698;48.072;7.800;2022-11-18T06:11:52;98029.25;;;8.40;93.44
63552;BME280;49698;48.072;7.800;2022-11-18T06:14:24;98039.66;;;8.42;93.22
63552;BME280;49698;48.072;7.800;2022-11-18T06:16:55;98037.75;;;8.42;93.45
63552;BME280;49698;48.072;7.800;2022-11-18T06:19:25;98048.28;;;8.39;92.67
63552;BME280;49698;48.072;7.800;2022-11-18T06:21:53;98050.19;;;8.38;92.79
63552;BME280;49698;48.072;7.800;2022-11-18T06:24:23;98053.41;;;8.35;92.67
63552;BME280;49698;48.072;7.800;2022-11-18T06:26:51;98051.84;;;8.34;92.50
63552;BME280;49698;48.072;7.800;2022-11-18T06:29:20;98051.06;;;8.33;92.29
63552;BME280;49698;48.072;7.800;2022-11-18T06:31:51;98052.44;;;8.31;92.00
63552;BME280;49698;48.072;7.800;2022-11-18T06:34:19;98063.16;;;8.31;92.21
63552;BME280;49698;48.072;7.800;2022-11-18T06:36:48;98062.34;;;8.30;92.24
63552;BME280;49698;48.072;7.800;2022-11-18T06:39:16;98067.72;;;8.30;91.98
63552;BME280;49698;48.072;7.800;2022-11-18T06:41:45;98065.53;;;8.32;91.81
63552;BME280;49698;48.072;7.800;2022-11-18T06:44:13;98074.34;;;8.33;91.49
63552;BME280;49698;48.072;7.800;2022-11-18T06:46:40;98080.78;;;8.32;91.41
63552;BME280;49698;48.072;7.800;2022-11-18T06:49:25;98089.91;;;8.31;91.42
63552;BME280;49698;48.072;7.800;2022-11-18T06:51:53;98094.16;;;8.32;91.58
63552;BME280;49698;48.072;7.800;2022-11-18T06:54:21;98096.84;;;8.32;91.50
63552;BME280;49698;48.072;7.800;2022-11-18T06:56:51;98093.88;;;8.33;91.10
63552;BME280;49698;48.072;7.800;2022-11-18T06:59:19;98093.28;;;8.37;91.16
63552;BME280;49698;48.072;7.800;2022-11-18T07:01:50;98095.16;;;8.36;91.07
63552;BME280;49698;48.072;7.800;2022-11-18T07:04:19;98101.59;;;8.35;91.16
63552;BME280;49698;48.072;7.800;2022-11-18T07:06:47;98108.53;;;8.36;91.23
63552;BME280;49698;48.072;7.800;2022-11-18T07:09:15;98111.75;;;8.38;91.07
63552;BME280;49698;48.072;7.800;2022-11-18T07:11:43;98117.91;;;8.39;91.20
63552;BME280;49698;48.072;7.800;2022-11-18T07:14:13;98116.00;;;8.39;91.12
63552;BME280;49698;48.072;7.800;2022-11-18T07:16:41;98125.66;;;8.40;91.35
63552;BME280;49698;48.072;7.800;2022-11-18T07:19:11;98129.59;;;8.43;90.96
63552;BME280;49698;48.072;7.800;2022-11-18T07:21:39;98126.63;;;8.44;90.80
63552;BME280;49698;48.072;7.800;2022-11-18T07:24:11;98137.81;;;8.46;91.23
63552;BME280;49698;48.072;7.800;2022-11-18T07:26:40;98132.97;;;8.48;90.67
63552;BME280;49698;48.072;7.800;2022-11-18T07:29:09;98135.03;;;8.51;91.04
63552;BME280;49698;48.072;7.800;2022-11-18T07:31:38;98134.94;;;8.56;90.73
63552;BME280;49698;48.072;7.800;2022-11-18T07:34:06;98139.72;;;8.60;90.71
63552;BME280;49698;48.072;7.800;2022-11-18T07:36:34;98132.81;;;8.67;90.60
63552;BME280;49698;48.072;7.800;2022-11-18T07:39:03;98141.25;;;8.74;90.42
63552;BME280;49698;48.072;7.800;2022-11-18T07:41:33;98145.09;;;8.82;90.06
63552;BME280;49698;48.072;7.800;2022-11-18T07:44:02;98151.16;;;8.88;89.64
63552;BME280;49698;48.072;7.800;2022-11-18T07:46:34;98156.69;;;8.91;89.86
63552;BME280;49698;48.072;7.800;2022-11-18T07:49:05;98155.59;;;8.92;89.79
63552;BME280;49698;48.072;7.800;2022-11-18T07:51:35;98167.91;;;8.93;90.12
63552;BME280;49698;48.072;7.800;2022-11-18T07:54:07;98167.63;;;8.95;89.98
63552;BME280;49698;48.072;7.800;2022-11-18T07:56:35;98167.00;;;8.98;90.08
63552;BME280;49698;48.072;7.800;2022-11-18T07:59:04;98167.19;;;9.01;90.14
63552;BME280;49698;48.072;7.800;2022-11-18T08:01:32;98172.72;;;9.05;89.63
63552;BME280;49698;48.072;7.800;2022-11-18T08:04:05;98174.50;;;9.10;89.44
63552;BME280;49698;48.072;7.800;2022-11-18T08:06:33;98182.44;;;9.15;89.39
63552;BME280;49698;48.072;7.800;2022-11-18T08:09:03;98184.81;;;9.16;89.62
63552;BME280;49698;48.072;7.800;2022-11-18T08:11:32;98185.00;;;9.20;89.60
63552;BME280;49698;48.072;7.800;2022-11-18T08:14:00;98186.56;;;9.21;89.44
63552;BME280;49698;48.072;7.800;2022-11-18T08:16:29;98195.13;;;9.23;89.51
63552;BME280;49698;48.072;7.800;2022-11-18T08:18:57;98197.50;;;9.24;89.58
63552;BME280;49698;48.072;7.800;2022-11-18T08:21:27;98200.97;;;9.25;89.37
63552;BME280;49698;48.072;7.800;2022-11-18T08:23:57;98205.53;;;9.24;89.74
63552;BME280;49698;48.072;7.800;2022-11-18T08:26:26;98204.28;;;9.22;89.64
63552;BME280;49698;48.072;7.800;2022-11-18T08:28:56;98211.81;;;9.20;89.63
63552;BME280;49698;48.072;7.800;2022-11-18T08:31:25;98216.06;;;9.21;90.09
63552;BME280;49698;48.072;7.800;2022-11-18T08:33:55;98214.19;;;9.21;89.95
63552;BME280;49698;48.072;7.800;2022-11-18T08:36:25;98218.16;;;9.24;89.94
63552;BME280;49698;48.072;7.800;2022-11-18T08:38:56;98213.75;;;9.28;89.84
63552;BME280;49698;48.072;7.800;2022-11-18T08:41:28;98213.63;;;9.33;89.97
63552;BME280;49698;48.072;7.800;2022-11-18T08:43:58;98211.16;;;9.37;89.62
63552;BME280;49698;48.072;7.800;2022-11-18T08:46:26;98213.53;;;9.38;89.29
63552;BME280;49698;48.072;7.800;2022-11-18T08:48:54;98214.34;;;9.39;89.18
63552;BME280;49698;48.072;7.800;2022-11-18T08:51:22;98216.69;;;9.40;89.45
63552;BME280;49698;48.072;7.800;2022-11-18T08:53:51;98205.50;;;9.38;89.22
63552;BME280;49698;48.072;7.800;2022-11-18T08:56:21;98216.22;;;9.38;89.79
63552;BME280;49698;48.072;7.800;2022-11-18T08:58:50;98220.50;;;9.39;89.83
63552;BME280;49698;48.072;7.800;2022-11-18T09:01:19;98224.47;;;9.42;89.38
63552;BME280;49698;48.072;7.800;2022-11-18T09:03:47;98221.97;;;9.45;89.40
63552;BME280;49698;48.072;7.800;2022-11-18T09:06:17;98221.06;;;9.50;88.86
63552;BME280;49698;48.072;7.800;2022-11-18T09:08:45;98225.50;;;9.54;89.38
63552;BME280;49698;48.072;7.800;2022-11-18T09:11:15;98232.34;;;9.61;88.79
63552;BME280;49698;48.072;7.800;2022-11-18T09:13:45;98238.69;;;9.65;88.88
63552;BME280;49698;48.072;7.800;2022-11-18T09:16:34;98231.28;;;9.70;88.49
63552;BME280;49698;48.072;7.800;2022-11-18T09:19:03;98231.47;;;9.74;88.67
63552;BME280;49698;48.072;7.800;2022-11-18T09:21:44;98236.72;;;9.79;88.53
63552;BME280;49698;48.072;7.800;2022-11-18T09:24:12;98234.22;;;9.83;88.21
63552;BME280;49698;48.072;7.800;2022-11-18T09:26:40;98239.75;;;9.86;87.95
63552;BME280;49698;48.072;7.800;2022-11-18T09:29:09;98241.34;;;9.87;88.15
63552;BME280;49698;48.072;7.800;2022-11-18T09:31:38;98247.22;;;9.89;87.74
63552;BME280;49698;48.072;7.800;2022-11-18T09:34:06;98250.22;;;9.88;88.15
63552;BME280;49698;48.072;7.800;2022-11-18T09:36:36;98245.63;;;9.88;88.28
63552;BME280;49698;48.072;7.800;2022-11-18T09:39:04;98254.28;;;9.85;88.08
63552;BME280;49698;48.072;7.800;2022-11-18T09:41:44;98248.13;;;9.85;88.08
63552;BME280;49698;48.072;7.800;2022-11-18T09:47:11;98259.16;;;9.83;88.76
63552;BME280;49698;48.072;7.800;2022-11-18T09:49:43;98261.03;;;9.83;88.60
63552;BME280;49698;48.072;7.800;2022-11-18T09:52:16;98273.06;;;9.85;88.16
63552;BME280;49698;48.072;7.800;2022-11-18T09:54:45;98275.16;;;9.88;88.08
63552;BME280;49698;48.072;7.800;2022-11-18T09:57:15;98279.91;;;9.91;88.32
63552;BME280;49698;48.072;7.800;2022-11-18T09:59:45;98284.66;;;9.94;87.66
63552;BME280;49698;48.072;7.800;2022-11-18T10:02:28;98284.03;;;9.97;87.88
63552;BME280;49698;48.072;7.800;2022-11-18T10:05:00;98289.59;;;10.01;87.72
63552;BME280;49698;48.072;7.800;2022-11-18T10:07:35;98298.31;;;10.07;87.54
63552;BME280;49698;48.072;7.800;2022-11-18T10:10:12;98302.47;;;10.13;87.56
63552;BME280;49698;48.072;7.800;2022-11-18T10:12:43;98300.03;;;10.25;87.11
63552;BME280;49698;48.072;7.800;2022-11-18T10:15:20;98308.81;;;10.39;86.82
63552;BME280;49698;48.072;7.800;2022-11-18T10:17:57;98301.75;;;10.52;86.14
63552;BME280;49698;48.072;7.800;2022-11-18T10:20:32;98307.16;;;10.61;86.13
63552;BME280;49698;48.072;7.800;2022-11-18T10:23:07;98309.75;;;10.66;85.72
63552;BME280;49698;48.072;7.800;2022-11-18T10:25:39;98311.50;;;10.70;85.27
63552;BME280;49698;48.072;7.800;2022-11-18T10:28:16;98314.97;;;10.71;85.33
63552;BME280;49698;48.072;7.800;2022-11-18T10:30:45;98328.41;;;10.71;85.37
63552;BME280;49698;48.072;7.800;2022-11-18T10:33:23;98325.25;;;10.69;85.79
63552;BME280;49698;48.072;7.800;2022-11-18T10:39:10;98324.44;;;10.68;85.52
63552;BME280;49698;48.072;7.800;2022-11-18T10:41:45;98330.63;;;10.69;85.54
63552;BME280;49698;48.072;7.800;2022-11-18T10:44:32;98323.34;;;10.69;85.36
63552;BME280;49698;48.072;7.800;2022-11-18T10:47:23;98321.28;;;10.66;85.53
63552;BME280;49698;48.072;7.800;2022-11-18T10:49:53;98317.31;;;10.64;84.99
63552;BME280;49698;48.072;7.800;2022-11-18T10:52:22;98318.41;;;10.63;85.33
63552;BME280;49698;48.072;7.800;2022-11-18T10:57:55;98323.28;;;10.61;85.19
63552;BME280;49698;48.072;7.800;2022-11-18T11:00:37;98311.09;;;10.55;85.72
63552;BME280;49698;48.072;7.800;2022-11-18T11:09:00;98316.47;;;10.55;85.47
63552;BME280;49698;48.072;7.800;2022-11-18T11:11:31;98316.47;;;10.55;85.76
63552;BME280;49698;48.072;7.800;2022-11-18T11:14:05;98317.59;;;10.53;85.63
63552;BME280;49698;48.072;7.800;2022-11-18T11:16:40;98318.66;;;10.52;85.97
63552;BME280;49698;48.072;7.800;2022-11-18T11:19:13;98316.47;;;10.55;85.58
63552;BME280;49698;48.072;7.800;2022-11-18T11:21:44;98314.75;;;10.59;86.00
63552;BME280;49698;48.072;7.800;2022-11-18T11:24:12;98306.25;;;10.65;85.65
63552;BME280;49698;48.072;7.800;2022-11-18T11:26:46;98303.00;;;10.77;85.27
63552;BME280;49698;48.072;7.800;2022-11-18T11:29:54;98310.16;;;10.90;84.52
63552;BME280;49698;48.072;7.800;2022-11-18T11:32:45;98305.28;;;11.10;84.04
63552;BME280;49698;48.072;7.800;2022-11-18T11:35:21;98304.84;;;11.25;83.19
63552;BME280;49698;48.072;7.800;2022-11-18T11:37:52;98310.75;;;11.36;82.53
63552;BME280;49698;48.072;7.800;2022-11-18T11:40:29;98307.59;;;11.42;81.93
63552;BME280;49698;48.072;7.800;2022-11-18T11:43:12;98313.75;;;11.51;81.76
63552;BME280;49698;48.072;7.800;2022-11-18T11:46:02;98306.97;;;11.54;81.23
63552;BME280;49698;48.072;7.800;2022-11-18T11:48:45;98314.72;;;11.56;81.20
63552;BME280;49698;48.072;7.800;2022-11-18T11:51:26;98310.91;;;11.57;80.97
63552;BME280;49698;48.072;7.800;2022-11-18T11:54:18;98314.41;;;11.66;81.11
63552;BME280;49698;48.072;7.800;2022-11-18T11:56:54;98317.09;;;11.74;80.62
63552;BME280;49698;48.072;7.800;2022-11-18T11:59:28;98315.03;;;11.80;80.41
63552;BME280;49698;48.072;7.800;2022-11-18T12:02:17;98319.50;;;11.85;80.07
63552;BME280;49698;48.072;7.800;2022-11-18T12:04:56;98312.22;;;11.94;80.04
63552;BME280;49698;48.072;7.800;2022-11-18T12:07:29;98313.94;;;11.98;79.37
63552;BME280;49698;48.072;7.800;2022-11-18T12:10:06;98311.25;;;11.98;79.18
63552;BME280;49698;48.072;7.800;2022-11-18T12:12:41;98312.03;;;12.08;78.75
63552;BME280;49698;48.072;7.800;2022-11-18T12:15:24;98312.38;;;12.06;78.38
63552;BME280;49698;48.072;7.800;2022-11-18T12:18:04;98308.09;;;11.96;78.46
63552;BME280;49698;48.072;7.800;2022-11-18T12:20:41;98316.00;;;11.84;78.65
63552;BME280;49698;48.072;7.800;2022-11-18T12:23:13;98323.91;;;11.72;79.05
63552;BME280;49698;48.072;7.800;2022-11-18T12:25:54;98323.56;;;11.65;79.33
63552;BME280;49698;48.072;7.800;2022-11-18T12:28:25;98323.91;;;11.63;79.64
63552;BME280;49698;48.072;7.800;2022-11-18T12:31:36;98326.09;;;11.61;79.66
63552;BME280;49698;48.072;7.800;2022-11-18T12:34:27;98322.63;;;11.61;79.81
63552;BME280;49698;48.072;7.800;2022-11-18T12:36:56;98327.84;;;11.57;79.73
63552;BME280;49698;48.072;7.800;2022-11-18T12:39:47;98318.53;;;11.55;79.77
63552;BME280;49698;48.072;7.800;2022-11-18T12:42:37;98326.72;;;11.49;79.83
63552;BME280;49698;48.072;7.800;2022-11-18T12:45:58;98326.56;;;11.46;79.73
63552;BME280;49698;48.072;7.800;2022-11-18T12:48:35;98321.50;;;11.44;79.93
63552;BME280;49698;48.072;7.800;2022-11-18T12:54:23;98322.91;;;11.42;79.68
63552;BME280;49698;48.072;7.800;2022-11-18T12:56:56;98316.44;;;11.43;79.59
63552;BME280;49698;48.072;7.800;2022-11-18T12:59:26;98321.03;;;11.42;79.24
63552;BME280;49698;48.072;7.800;2022-11-18T13:02:14;98319.44;;;11.41;79.36
63552;BME280;49698;48.072;7.800;2022-11-18T13:04:44;98324.81;;;11.41;78.99
63552;BME280;49698;48.072;7.800;2022-11-18T13:07:19;98332.91;;;11.41;78.80
63552;BME280;49698;48.072;7.800;2022-11-18T13:10:21;98321.78;;;11.34;78.57
63552;BME280;49698;48.072;7.800;2022-11-18T13:12:52;98331.13;;;11.28;78.58
63552;BME280;49698;48.072;7.800;2022-11-18T13:15:21;98323.38;;;11.26;78.79
63552;BME280;49698;48.072;7.800;2022-11-18T13:18:21;98325.25;;;11.26;78.83
63552;BME280;49698;48.072;7.800;2022-11-18T13:20:54;98330.97;;;11.24;78.58
63552;BME280;49698;48.072;7.800;2022-11-18T13:23:26;98326.03;;;11.18;78.67
63552;BME280;49698;48.072;7.800;2022-11-18T13:26:16;98331.06;;;11.11;78.58
63552;BME280;49698;48.072;7.800;2022-11-18T13:29:01;98337.72;;;11.05;78.53
63552;BME280;49698;48.072;7.800;2022-11-18T13:31:36;98333.28;;;11.00;78.75
63552;BME280;49698;48.072;7.800;2022-11-18T13:34:11;98336.25;;;10.98;79.01
63552;BME280;49698;48.072;7.800;2022-11-18T13:36:44;98334.84;;;10.92;79.10
63552;BME280;49698;48.072;7.800;2022-11-18T13:39:19;98332.09;;;10.84;79.01
63552;BME280;49698;48.072;7.800;2022-11-18T13:41:58;98336.31;;;10.76;79.35
63552;BME280;49698;48.072;7.800;2022-11-18T13:44:30;98335.53;;;10.75;79.86
63552;BME280;49698;48.072;7.800;2022-11-18T13:47:05;98345.50;;;10.75;79.74
63552;BME280;49698;48.072;7.800;2022-11-18T13:49:43;98333.78;;;10.71;79.66
63552;BME280;49698;48.072;7.800;2022-11-18T13:52:18;98340.28;;;10.70;79.51
63552;BME280;49698;48.072;7.800;2022-11-18T13:54:49;98344.53;;;10.71;79.66
63552;BME280;49698;48.072;7.800;2022-11-18T13:57:19;98345.31;;;10.71;79.91